createdAt,value
2017-11-16T00:01:40.381Z,81.81
2017-11-16T00:04:08.027Z,81.85
2017-11-16T00:06:35.705Z,82.01
2017-11-16T00:09:03.456Z,81.76
2017-11-16T00:11:31.085Z,81.94
2017-11-16T00:13:58.820Z,82.08
2017-11-16T00:16:26.441Z,82.26
2017-11-16T00:18:54.077Z,82.34
2017-11-16T00:21:21.752Z,82.54
2017-11-16T00:23:49.439Z,82.65
2017-11-16T00:26:17.068Z,82.61
2017-11-16T00:28:44.808Z,82.54
2017-11-16T00:31:12.428Z,82.63
2017-11-16T00:33:40.048Z,82.86
2017-11-16T00:36:07.728Z,82.57
2017-11-16T00:38:35.488Z,82.44
2017-11-16T00:41:03.173Z,82.77
2017-11-16T00:43:30.905Z,82.74
2017-11-16T00:45:58.524Z,82.89
2017-11-16T00:48:26.204Z,82.75
2017-11-16T00:50:53.867Z,82.51
2017-11-16T00:53:21.555Z,82.46
2017-11-16T00:55:49.184Z,82.56
2017-11-16T00:58:16.920Z,82.57
2017-11-16T01:00:44.550Z,82.47
2017-11-16T01:03:12.179Z,82.51
2017-11-16T01:05:39.919Z,82.53
2017-11-16T01:08:07.536Z,82.44
2017-11-16T01:10:35.172Z,82.47
2017-11-16T01:13:02.881Z,82.55
2017-11-16T01:15:30.501Z,82.47
2017-11-16T01:17:58.184Z,82.40
2017-11-16T01:20:25.913Z,82.25
2017-11-16T01:22:53.543Z,81.98
2017-11-16T01:25:21.208Z,81.92
2017-11-16T01:27:48.882Z,82.04
2017-11-16T01:30:16.562Z,82.25
2017-11-16T01:32:44.195Z,82.30
2017-11-16T01:35:11.883Z,82.00
2017-11-16T01:37:39.510Z,81.96
2017-11-16T01:40:07.160Z,82.08
2017-11-16T01:42:34.840Z,82.22
2017-11-16T01:45:02.542Z,82.00
2017-11-16T01:47:30.176Z,81.98
2017-11-16T01:49:57.906Z,82.09
2017-11-16T01:52:25.524Z,82.03
2017-11-16T01:54:53.158Z,81.81
2017-11-16T01:57:20.888Z,81.97
2017-11-16T01:59:48.579Z,81.85
2017-11-16T02:02:27.970Z,82.01
2017-11-16T02:04:55.652Z,81.93
2017-11-16T02:07:23.268Z,81.77
2017-11-16T02:09:51.000Z,81.56
2017-11-16T02:12:18.636Z,81.41
2017-11-16T02:14:46.273Z,81.61
2017-11-16T02:17:14.006Z,81.54
2017-11-16T02:19:41.648Z,81.61
2017-11-16T02:22:09.339Z,81.66
2017-11-16T02:24:37.076Z,81.76
2017-11-16T02:27:04.711Z,81.61
2017-11-16T02:29:32.347Z,81.58
2017-11-16T02:32:00.101Z,81.40
2017-11-16T02:34:27.733Z,81.31
2017-11-16T02:36:55.474Z,81.34
2017-11-16T02:39:23.203Z,81.63
2017-11-16T02:41:50.862Z,81.49
2017-11-16T02:44:18.488Z,81.56
2017-11-16T02:46:46.185Z,81.61
2017-11-16T02:49:13.851Z,81.60
2017-11-16T02:51:41.488Z,81.65
2017-11-16T02:54:09.200Z,81.82
2017-11-16T02:56:36.833Z,81.84
2017-11-16T02:59:04.498Z,81.83
2017-11-16T03:01:32.202Z,81.83
2017-11-16T03:03:59.831Z,81.81
2017-11-16T03:06:27.617Z,81.91
2017-11-16T03:08:55.362Z,81.98
2017-11-16T03:11:23.036Z,81.87
2017-11-16T03:13:50.667Z,82.01
2017-11-16T03:16:18.346Z,82.02
2017-11-16T03:18:45.973Z,81.98
2017-11-16T03:21:13.664Z,82.09
2017-11-16T03:23:41.395Z,82.14
2017-11-16T03:26:09.030Z,82.16
2017-11-16T03:28:36.823Z,82.18
2017-11-16T03:31:04.571Z,82.17
2017-11-16T03:33:32.202Z,82.18
2017-11-16T03:35:59.870Z,82.34
2017-11-16T03:38:27.552Z,82.22
2017-11-16T03:40:55.180Z,82.43
2017-11-16T03:43:22.865Z,82.52
2017-11-16T03:45:50.586Z,82.42
2017-11-16T03:48:18.276Z,82.32
2017-11-16T03:50:45.909Z,82.20
2017-11-16T03:53:13.611Z,82.11
2017-11-16T03:55:41.301Z,81.99
2017-11-16T03:58:08.980Z,81.94
2017-11-16T04:00:36.733Z,81.86
2017-11-16T04:03:04.343Z,81.78
2017-11-16T04:05:31.965Z,81.93
2017-11-16T04:07:59.676Z,82.18
2017-11-16T04:10:27.315Z,82.09
2017-11-16T04:12:54.932Z,82.22
2017-11-16T04:15:22.600Z,82.19
2017-11-16T04:17:50.227Z,82.28
2017-11-16T04:20:17.872Z,82.19
2017-11-16T04:22:45.548Z,82.39
2017-11-16T04:25:13.179Z,82.38
2017-11-16T04:27:40.812Z,82.67
2017-11-16T04:30:08.540Z,82.70
2017-11-16T04:32:36.163Z,82.98
2017-11-16T04:35:03.776Z,83.17
2017-11-16T04:37:31.504Z,83.14
2017-11-16T04:39:59.177Z,83.27
2017-11-16T04:42:26.796Z,83.29
2017-11-16T04:44:54.463Z,83.00
2017-11-16T04:47:22.084Z,82.99
2017-11-16T04:49:49.717Z,82.86
2017-11-16T04:52:17.403Z,82.83
2017-11-16T04:54:45.024Z,82.94
2017-11-16T04:57:12.656Z,83.03
2017-11-16T04:59:40.376Z,83.00
2017-11-16T05:02:08.066Z,83.06
2017-11-16T05:04:35.690Z,82.98
2017-11-16T05:07:03.364Z,82.93
2017-11-16T05:09:30.974Z,82.88
2017-11-16T05:11:58.648Z,83.05
2017-11-16T05:14:26.309Z,82.82
2017-11-16T05:16:53.985Z,82.38
2017-11-16T05:19:21.600Z,82.43
2017-11-16T05:21:49.277Z,82.32
2017-11-16T05:24:16.952Z,82.38
2017-11-16T05:26:44.632Z,81.98
2017-11-16T05:29:12.304Z,81.74
2017-11-16T05:31:40.012Z,81.75
2017-11-16T05:34:07.633Z,81.78
2017-11-16T05:36:35.344Z,81.67
2017-11-16T05:39:03.069Z,81.73
2017-11-16T05:41:30.704Z,81.53
2017-11-16T05:43:58.405Z,81.75
2017-11-16T05:46:26.024Z,81.81
2017-11-16T05:48:53.708Z,81.85
2017-11-16T05:51:21.379Z,81.44
2017-11-16T05:53:48.992Z,81.21
2017-11-16T05:56:16.664Z,81.16
2017-11-16T05:58:44.332Z,81.23
2017-11-16T06:01:11.960Z,81.09
2017-11-16T06:03:39.587Z,80.69
2017-11-16T06:06:07.296Z,80.68
2017-11-16T06:08:34.971Z,81.04
2017-11-16T06:11:02.598Z,81.04
2017-11-16T06:13:30.286Z,80.32
2017-11-16T06:15:57.911Z,80.68
2017-11-16T06:18:25.610Z,80.41
2017-11-16T06:20:53.292Z,80.44
2017-11-16T06:23:20.900Z,80.24
2017-11-16T06:25:48.585Z,79.70
2017-11-16T06:28:16.278Z,79.57
2017-11-16T06:30:43.965Z,79.47
2017-11-16T06:33:11.584Z,79.27
2017-11-16T06:35:39.340Z,78.74
2017-11-16T06:38:06.960Z,78.50
2017-11-16T06:40:34.597Z,78.11
2017-11-16T06:43:02.275Z,77.32
2017-11-16T06:45:29.953Z,76.87
2017-11-16T06:47:57.578Z,76.95
2017-11-16T06:50:25.252Z,76.43
2017-11-16T06:52:52.875Z,75.90
2017-11-16T06:55:20.488Z,76.08
2017-11-16T06:57:48.100Z,76.08
2017-11-16T07:00:15.711Z,75.58
2017-11-16T07:02:43.271Z,75.07
2017-11-16T07:05:10.859Z,75.62
2017-11-16T07:07:38.478Z,75.29
2017-11-16T07:10:06.033Z,75.42
2017-11-16T07:12:33.626Z,74.73
2017-11-16T07:15:01.199Z,75.25
2017-11-16T07:17:28.755Z,75.36
2017-11-16T07:19:58.993Z,75.65
2017-11-16T07:22:26.739Z,74.78
2017-11-16T07:24:54.325Z,74.84
2017-11-16T07:27:21.925Z,74.07
2017-11-16T07:29:49.488Z,73.37
2017-11-16T07:32:17.051Z,72.65
2017-11-16T07:34:44.667Z,72.36
2017-11-16T07:37:12.252Z,72.39
2017-11-16T07:39:39.807Z,72.06
2017-11-16T07:42:07.414Z,72.01
2017-11-16T07:44:34.963Z,71.72
2017-11-16T07:47:02.586Z,70.93
2017-11-16T07:49:30.249Z,71.12
2017-11-16T07:51:57.859Z,71.32
2017-11-16T07:54:25.479Z,71.06
2017-11-16T07:56:53.127Z,71.14
2017-11-16T07:59:20.696Z,71.04
2017-11-16T08:01:48.255Z,71.36
2017-11-16T08:04:15.872Z,70.63
2017-11-16T08:06:43.423Z,70.40
2017-11-16T08:09:10.987Z,71.54
2017-11-16T08:11:38.591Z,70.97
2017-11-16T08:14:06.154Z,70.69
2017-11-16T08:16:33.726Z,70.75
2017-11-16T08:19:01.349Z,70.88
2017-11-16T08:21:28.907Z,70.31
2017-11-16T08:23:56.467Z,69.37
2017-11-16T08:26:24.048Z,68.48
2017-11-16T08:28:51.618Z,68.74
2017-11-16T08:31:19.188Z,68.73
2017-11-16T08:33:46.783Z,68.02
2017-11-16T08:36:14.339Z,68.92
2017-11-16T08:38:41.907Z,68.10
2017-11-16T08:41:09.508Z,68.50
2017-11-16T08:43:37.073Z,68.05
2017-11-16T08:46:04.635Z,68.97
2017-11-16T08:48:32.240Z,68.70
2017-11-16T08:50:59.812Z,68.75
2017-11-16T08:53:27.384Z,68.80
2017-11-16T08:55:54.998Z,67.63
2017-11-16T08:58:22.564Z,67.25
2017-11-16T09:00:50.203Z,67.62
2017-11-16T09:03:17.808Z,66.91
2017-11-16T09:05:45.384Z,66.84
2017-11-16T09:08:12.963Z,66.72
2017-11-16T09:10:40.559Z,66.15
2017-11-16T09:13:08.118Z,64.95
2017-11-16T09:15:35.691Z,65.88
2017-11-16T09:18:03.304Z,64.83
2017-11-16T09:20:30.865Z,64.96
2017-11-16T09:22:58.422Z,63.64
2017-11-16T09:25:26.041Z,62.83
2017-11-16T09:27:53.613Z,62.46
2017-11-16T09:30:21.193Z,62.33
2017-11-16T09:32:48.788Z,62.44
2017-11-16T09:35:16.345Z,62.77
2017-11-16T09:37:43.944Z,62.07
2017-11-16T09:40:11.600Z,62.63
2017-11-16T09:42:39.228Z,62.72
2017-11-16T09:45:06.861Z,62.51
2017-11-16T09:47:41.485Z,63.31
2017-11-16T09:50:09.128Z,62.29
2017-11-16T09:52:36.750Z,62.57
2017-11-16T09:55:04.448Z,62.99
2017-11-16T09:57:32.077Z,63.11
2017-11-16T09:59:59.700Z,61.61
2017-11-16T10:02:27.453Z,62.80
2017-11-16T10:04:55.117Z,62.23
2017-11-16T10:07:22.736Z,61.57
2017-11-16T10:09:50.417Z,62.17
2017-11-16T10:12:18.041Z,62.76
2017-11-16T10:14:45.665Z,62.18
2017-11-16T10:17:13.365Z,62.59
2017-11-16T10:19:41.040Z,63.01
2017-11-16T10:22:08.648Z,63.54
2017-11-16T10:24:36.317Z,63.98
2017-11-16T10:27:03.928Z,63.36
2017-11-16T10:29:31.555Z,63.41
2017-11-16T10:31:59.280Z,62.39
2017-11-16T10:34:26.896Z,62.67
2017-11-16T10:36:54.567Z,61.40
2017-11-16T10:39:22.328Z,62.18
2017-11-16T10:41:49.944Z,62.94
2017-11-16T10:44:17.576Z,61.82
2017-11-16T10:46:45.276Z,62.26
2017-11-16T10:49:12.916Z,61.17
2017-11-16T10:51:40.553Z,60.56
2017-11-16T10:54:08.233Z,59.88
2017-11-16T10:56:35.850Z,59.40
2017-11-16T10:59:03.464Z,58.56
2017-11-16T11:01:31.189Z,58.18
2017-11-16T11:03:58.856Z,57.75
2017-11-16T11:06:26.459Z,58.48
2017-11-16T11:08:54.140Z,58.33
2017-11-16T11:11:21.751Z,57.67
2017-11-16T11:13:49.362Z,56.28
2017-11-16T11:16:17.081Z,56.13
2017-11-16T11:18:44.753Z,56.57
2017-11-16T11:21:12.372Z,55.90
2017-11-16T11:23:40.097Z,56.08
2017-11-16T11:26:07.708Z,57.38
2017-11-16T11:28:35.334Z,57.52
2017-11-16T11:31:03.001Z,57.92
2017-11-16T11:33:30.616Z,58.75
2017-11-16T11:35:58.237Z,58.92
2017-11-16T11:38:25.967Z,58.91
2017-11-16T11:40:53.707Z,58.78
2017-11-16T11:43:21.388Z,59.02
2017-11-16T11:45:49.112Z,60.14
2017-11-16T11:48:16.728Z,59.76
2017-11-16T11:50:44.407Z,59.30
2017-11-16T11:53:12.073Z,59.11
2017-11-16T11:55:39.692Z,58.93
2017-11-16T11:58:07.362Z,60.09
2017-11-16T12:00:35.028Z,60.68
2017-11-16T12:03:02.648Z,61.27
2017-11-16T12:05:30.335Z,61.45
2017-11-16T12:07:57.997Z,61.92
2017-11-16T12:10:25.616Z,62.42
2017-11-16T12:12:53.232Z,62.28
2017-11-16T12:15:20.982Z,63.33
2017-11-16T12:17:48.664Z,62.74
2017-11-16T12:20:16.286Z,63.30
2017-11-16T12:22:44.022Z,63.54
2017-11-16T12:25:11.637Z,64.49
2017-11-16T12:27:39.269Z,64.73
2017-11-16T12:30:07.036Z,64.38
2017-11-16T12:32:34.717Z,65.35
2017-11-16T12:35:02.405Z,66.33
2017-11-16T12:37:30.152Z,65.50
2017-11-16T12:39:57.772Z,65.81
2017-11-16T12:42:25.408Z,66.09
2017-11-16T12:44:53.006Z,66.66
2017-11-16T12:47:20.580Z,66.05
2017-11-16T12:49:48.156Z,66.07
2017-11-16T12:52:15.744Z,66.82
2017-11-16T12:54:43.295Z,66.45
2017-11-16T12:57:10.863Z,66.29
2017-11-16T12:59:38.451Z,66.04
2017-11-16T13:02:06.017Z,65.92
2017-11-16T13:04:33.568Z,66.01
2017-11-16T13:07:01.175Z,65.92
2017-11-16T13:09:28.727Z,66.09
2017-11-16T13:11:56.274Z,66.54
2017-11-16T13:14:23.877Z,66.32
2017-11-16T13:16:51.426Z,66.46
2017-11-16T13:19:18.967Z,66.43
2017-11-16T13:21:46.565Z,66.65
2017-11-16T13:24:14.131Z,66.89
2017-11-16T13:26:41.687Z,67.26
2017-11-16T13:29:09.285Z,67.45
2017-11-16T13:31:36.847Z,67.35
2017-11-16T13:34:04.399Z,68.03
2017-11-16T13:36:32.031Z,68.45
2017-11-16T13:38:59.600Z,69.14
2017-11-16T13:41:27.159Z,69.18
2017-11-16T13:43:54.754Z,69.16
2017-11-16T13:46:22.303Z,69.48
2017-11-16T13:48:49.851Z,69.85
2017-11-16T13:51:17.458Z,70.37
2017-11-16T13:53:45.012Z,70.63
2017-11-16T13:56:12.677Z,71.02
2017-11-16T13:58:40.262Z,71.09
2017-11-16T14:01:07.883Z,71.23
2017-11-16T14:03:35.431Z,71.51
2017-11-16T14:06:03.024Z,71.45
2017-11-16T14:08:30.574Z,71.29
2017-11-16T14:10:58.128Z,71.12
2017-11-16T14:13:25.739Z,71.35
2017-11-16T14:15:53.297Z,71.10
2017-11-16T14:18:20.859Z,71.64
2017-11-16T14:20:48.446Z,71.58
2017-11-16T14:23:16.035Z,71.64
2017-11-16T14:25:43.585Z,71.93
2017-11-16T14:28:11.164Z,72.57
2017-11-16T14:30:38.724Z,72.78
2017-11-16T14:33:06.278Z,72.90
2017-11-16T14:35:33.879Z,73.23
2017-11-16T14:38:01.445Z,73.01
2017-11-16T14:40:29.003Z,73.26
2017-11-16T14:42:56.597Z,73.11
2017-11-16T14:45:24.163Z,73.43
2017-11-16T14:47:51.729Z,73.94
2017-11-16T14:50:19.312Z,74.53
2017-11-16T14:52:46.871Z,74.96
2017-11-16T14:55:14.428Z,75.31
2017-11-16T14:57:42.023Z,75.40
2017-11-16T15:00:09.579Z,76.01
2017-11-16T15:02:37.144Z,76.45
2017-11-16T15:05:04.787Z,76.59
2017-11-16T15:07:32.410Z,76.90
2017-11-16T15:10:00.020Z,77.32
2017-11-16T15:12:27.622Z,77.60
2017-11-16T15:14:55.183Z,77.99
2017-11-16T15:17:22.739Z,78.09
2017-11-16T15:19:50.325Z,78.35
2017-11-16T15:22:17.891Z,78.51
2017-11-16T15:24:45.452Z,78.95
2017-11-16T15:27:13.085Z,79.28
2017-11-16T15:29:40.636Z,79.51
2017-11-16T15:32:08.263Z,79.71
2017-11-16T15:34:35.853Z,79.95
2017-11-16T15:37:03.415Z,80.45
2017-11-16T15:39:30.967Z,80.81
2017-11-16T15:41:58.560Z,81.12
2017-11-16T15:44:26.117Z,81.35
2017-11-16T15:46:53.667Z,81.39
2017-11-16T15:49:21.264Z,81.70
2017-11-16T15:51:48.827Z,81.94
2017-11-16T15:54:16.404Z,81.97
2017-11-16T15:56:43.996Z,82.11
2017-11-16T15:59:11.564Z,82.29
2017-11-16T16:01:39.184Z,82.49
2017-11-16T16:04:06.848Z,82.36
2017-11-16T16:06:34.462Z,82.35
2017-11-16T16:09:02.027Z,82.48
2017-11-16T16:11:29.695Z,82.29
2017-11-16T16:13:57.251Z,82.42
2017-11-16T16:16:24.811Z,82.60
2017-11-16T16:18:52.411Z,82.64
2017-11-16T16:21:20.020Z,82.37
2017-11-16T16:23:47.583Z,82.33
2017-11-16T16:26:16.039Z,82.21
2017-11-16T16:28:43.595Z,82.01
2017-11-16T16:31:11.153Z,82.00
2017-11-16T16:33:38.827Z,81.72
2017-11-16T16:36:06.373Z,81.59
2017-11-16T16:38:33.927Z,81.39
2017-11-16T16:41:01.539Z,81.10
2017-11-16T16:43:29.100Z,81.31
2017-11-16T16:45:56.652Z,81.17
2017-11-16T16:48:24.240Z,80.96
2017-11-16T16:50:52.579Z,81.00
2017-11-16T16:53:20.184Z,81.06
2017-11-16T16:55:47.771Z,81.08
2017-11-16T16:58:15.329Z,80.99
2017-11-16T17:00:42.880Z,80.86
2017-11-16T17:03:10.463Z,80.69
2017-11-16T17:05:38.038Z,80.64
2017-11-16T17:08:05.594Z,80.57
2017-11-16T17:10:33.195Z,80.25
2017-11-16T17:13:00.747Z,80.19
2017-11-16T17:15:28.331Z,80.40
2017-11-16T17:17:55.916Z,80.36
2017-11-16T17:20:23.467Z,80.55
2017-11-16T17:22:51.040Z,80.31
2017-11-16T17:25:18.627Z,80.34
2017-11-16T17:27:46.176Z,80.57
2017-11-16T17:30:13.731Z,80.37
2017-11-16T17:32:41.311Z,80.54
2017-11-16T17:35:08.859Z,80.26
2017-11-16T17:37:36.427Z,79.96
2017-11-16T17:40:04.071Z,80.31
2017-11-16T17:42:31.635Z,80.30
2017-11-16T17:44:59.235Z,80.26
2017-11-16T17:47:26.820Z,80.07
2017-11-16T17:49:54.371Z,80.06
2017-11-16T17:52:21.934Z,80.19
2017-11-16T17:54:49.522Z,79.97
2017-11-16T17:57:17.095Z,79.97
2017-11-16T17:59:44.655Z,79.94
2017-11-16T18:02:12.252Z,79.95
2017-11-16T18:04:39.795Z,80.03
2017-11-16T18:07:07.343Z,79.99
2017-11-16T18:09:34.930Z,80.04
2017-11-16T18:12:02.587Z,79.92
2017-11-16T18:14:30.136Z,80.10
2017-11-16T18:16:57.733Z,80.13
2017-11-16T18:19:25.286Z,80.02
2017-11-16T18:21:52.849Z,80.10
2017-11-16T18:24:20.433Z,79.75
2017-11-16T18:26:47.998Z,79.91
2017-11-16T18:29:15.552Z,79.79
2017-11-16T18:31:43.127Z,79.83
2017-11-16T18:34:10.723Z,79.76
2017-11-16T18:36:38.278Z,79.69
2017-11-16T18:39:05.871Z,79.56
2017-11-16T18:41:33.426Z,79.31
2017-11-16T18:44:00.975Z,79.48
2017-11-16T18:46:28.556Z,79.43
2017-11-16T18:48:56.108Z,79.49
2017-11-16T18:51:23.675Z,79.46
2017-11-16T18:53:51.279Z,79.62
2017-11-16T18:56:18.826Z,79.60
2017-11-16T18:58:46.376Z,79.79
2017-11-16T19:01:13.970Z,79.90
2017-11-16T19:03:41.520Z,79.84
2017-11-16T19:06:09.063Z,79.94
2017-11-16T19:08:36.682Z,80.08
2017-11-16T19:11:04.247Z,80.26
2017-11-16T19:13:31.806Z,80.02
2017-11-16T19:15:59.395Z,80.32
2017-11-16T19:18:26.956Z,80.23
2017-11-16T19:20:54.506Z,80.34
2017-11-16T19:23:22.124Z,80.36
2017-11-16T19:25:49.671Z,80.25
2017-11-16T19:28:17.259Z,80.18
2017-11-16T19:30:44.854Z,80.22
2017-11-16T19:33:12.416Z,80.29
2017-11-16T19:35:40.022Z,80.27
2017-11-16T19:38:07.619Z,80.18
2017-11-16T19:40:35.177Z,80.27
2017-11-16T19:43:02.731Z,80.49
2017-11-16T19:45:30.316Z,80.49
2017-11-16T19:47:57.872Z,80.38
2017-11-16T19:50:25.411Z,80.40
2017-11-16T19:52:53.015Z,80.32
2017-11-16T19:55:20.599Z,80.46
2017-11-16T19:57:48.148Z,80.55
2017-11-16T20:00:15.741Z,80.38
2017-11-16T20:02:43.410Z,80.46
2017-11-16T20:05:10.955Z,80.27
2017-11-16T20:07:38.531Z,80.39
2017-11-16T20:10:06.074Z,80.34
2017-11-16T20:12:33.622Z,80.20
2017-11-16T20:15:01.225Z,80.27
2017-11-16T20:17:28.773Z,80.12
2017-11-16T20:19:56.314Z,80.24
2017-11-16T20:22:23.886Z,80.29
2017-11-16T20:24:51.456Z,80.22
2017-11-16T20:27:19.001Z,80.40
2017-11-16T20:29:46.640Z,80.52
2017-11-16T20:32:14.198Z,80.61
2017-11-16T20:34:41.743Z,80.60
2017-11-16T20:40:29.999Z,80.39
2017-11-16T20:46:07.907Z,80.75
2017-11-16T20:51:50.011Z,81.15
2017-11-16T20:54:20.494Z,81.15
2017-11-16T20:56:48.096Z,81.15
2017-11-16T20:59:15.709Z,81.29
2017-11-16T21:01:43.290Z,81.31
2017-11-16T21:04:10.840Z,81.28
2017-11-16T21:06:38.396Z,81.55
2017-11-16T21:09:06.037Z,81.68
2017-11-16T21:11:33.594Z,81.63
2017-11-16T21:14:01.144Z,81.55
2017-11-16T21:16:28.734Z,81.95
2017-11-16T21:18:56.282Z,82.02
2017-11-16T21:21:23.831Z,81.89
2017-11-16T21:23:51.407Z,81.98
2017-11-16T21:26:18.957Z,82.44
2017-11-16T21:28:46.505Z,82.17
2017-11-16T21:31:14.096Z,82.02
2017-11-16T21:33:41.673Z,81.88
2017-11-16T21:36:09.228Z,81.71
2017-11-16T21:38:36.816Z,81.89
2017-11-16T21:41:04.383Z,82.50
2017-11-16T21:43:31.995Z,82.18
2017-11-16T21:45:59.599Z,82.21
2017-11-16T21:48:27.200Z,82.52
2017-11-16T21:50:54.819Z,82.62
2017-11-16T21:53:22.484Z,82.56
2017-11-16T21:55:50.104Z,82.45
2017-11-16T21:58:17.772Z,82.49
2017-11-16T22:00:45.430Z,82.37
2017-11-16T22:03:13.048Z,82.57
2017-11-16T22:05:40.668Z,82.37
2017-11-16T22:08:08.352Z,82.39
2017-11-16T22:10:35.972Z,82.23
2017-11-16T22:13:03.588Z,82.23
2017-11-16T22:15:31.305Z,81.98
2017-11-16T22:17:58.980Z,82.00
2017-11-16T22:20:26.600Z,82.13
2017-11-16T22:22:54.276Z,82.18
2017-11-16T22:25:21.960Z,82.27
2017-11-16T22:27:49.608Z,81.98
2017-11-16T22:30:17.337Z,81.85
2017-11-16T22:32:44.959Z,81.81
2017-11-16T22:35:12.572Z,81.86
2017-11-16T22:37:40.240Z,82.15
2017-11-16T22:40:07.861Z,81.97
2017-11-16T22:42:35.475Z,81.85
2017-11-16T22:45:03.237Z,81.78
2017-11-16T22:47:30.850Z,81.76
2017-11-16T22:49:58.479Z,81.95
2017-11-16T22:52:26.182Z,81.98
2017-11-16T22:54:53.782Z,81.93
2017-11-16T22:57:21.423Z,82.18
2017-11-16T22:59:49.158Z,82.17
2017-11-16T23:02:16.792Z,82.15
2017-11-16T23:04:44.403Z,82.38
2017-11-16T23:07:12.137Z,82.32
2017-11-16T23:09:39.746Z,82.17
2017-11-16T23:12:07.422Z,81.73
2017-11-16T23:14:35.128Z,81.71
2017-11-16T23:17:02.777Z,81.68
2017-11-16T23:19:30.395Z,81.86
2017-11-16T23:21:58.062Z,81.84
2017-11-16T23:24:25.764Z,81.89
2017-11-16T23:26:53.392Z,81.85
2017-11-16T23:29:21.125Z,81.88
2017-11-16T23:31:48.804Z,81.60
2017-11-16T23:34:16.420Z,81.41
2017-11-16T23:36:44.152Z,81.51
2017-11-16T23:39:11.847Z,81.33
2017-11-16T23:41:39.521Z,81.28
2017-11-16T23:44:07.182Z,81.41
2017-11-16T23:46:34.814Z,81.78
2017-11-16T23:49:02.428Z,81.72
2017-11-16T23:51:30.112Z,81.78
2017-11-16T23:53:57.737Z,81.80
2017-11-16T23:56:25.421Z,81.73
2017-11-16T23:58:53.113Z,82.02
